KFFT/FFT METAR and TAF weather

Enter ICAO airport designator
Station Type Date Time Source
KFFT METAR 2019/02/16 16:53 UTC NOAA

KFFT 161653Z AUTO 00000KT 10SM CLR 02/M06 A3000 RMK AO2 SLP164 T00221061


Station Type Date Time Source
KFFT Decoded METAR 2019/02/16 16:53 UTC NOAA

FRANKFORT CAPITAL CITY AIRPORT , KY, United States (KFFT) 38-11N 84-54W 236M
Feb 16, 2019 - 11:53 AM EST / 2019.02.16 1653 UTC
Wind: Calm:0
Visibility: 10 mile(s):0
Sky conditions: clear
Temperature: 36.0 F (2.2 C)
Dew Point: 21.0 F (-6.1 C)
Relative Humidity: 54%
Pressure (altimeter): 30 in. Hg (1015 hPa)
ob: KFFT 161653Z AUTO 00000KT 10SM CLR 02/M06 A3000 RMK AO2 SLP164 T00221061
cycle: 17

Station Type Date Time Source
KFFT TAF UTC NOAA

Error!


Example: see airport list